Rancho Mirage, California
Current Conditions -  °F | °C
As of 3:53 AM on Monday 20 Oct 2014 (Local Time) from KPSP Reporting Station
Clear Clear  
Wind Chill: 76°   Ceiling: Unl
Heat Index: 76°   Visibility: 10mi
Dew Point: 54°   Wind: 6mph
Humidity: 46%   Direction: 310°NW
Pressure: 29.82"   Gusts: NA
Location:  33.77°N, 116.44°W
Report Text: KPSP 201053Z AUTO 31005KT 10SM CLR 24/12 A2982 RMK AO2 SLP093 T02440122 TSNO
Loading
Personal Weather Stations






























Interactive Weather Map
Tropical Storm Tracking
New forecast layout! Learn more

10-Day Weather Forecast

Advertisements
Track Severe Weather on mobile